Time;durP1;ratioP1;P1;durP2;ratioP2;P2;SDS_P1;SDS_P2;PMS_P1;PMS_P2;Temp;Humidity;BMP_temperature;BMP_pressure;BME280_temperature;BME280_humidity;BME280_pressure;Samples;Min_cycle;Max_cycle;Signal;HPM_P1;HPM_P2
2021/12/26 00:01:57;;;;;;;17.57;13.60;;;6.20;99.90;;;;;;1878599;76;21148;-77
2021/12/26 00:04:49;;;;;;;18.77;13.72;;;6.20;99.90;;;;;;1878672;76;21102;-77
2021/12/26 00:07:40;;;;;;;20.90;13.90;;;6.20;99.90;;;;;;1879353;76;21086;-78
2021/12/26 00:10:32;;;;;;;18.55;14.55;;;6.20;99.90;;;;;;1859436;76;21177;-76
2021/12/26 00:13:23;;;;;;;17.67;13.48;;;6.20;99.90;;;;;;1879828;76;21132;-77
2021/12/26 00:16:15;;;;;;;17.27;13.70;;;6.20;99.90;;;;;;1877402;76;21137;-76
2021/12/26 00:19:06;;;;;;;17.02;14.10;;;6.20;99.90;;;;;;1878940;76;21133;-76
2021/12/26 00:21:59;;;;;;;20.95;15.68;;;6.20;99.90;;;;;;1860360;76;21114;-77
2021/12/26 00:24:50;;;;;;;18.90;15.20;;;6.20;99.90;;;;;;1879685;76;21092;-76
2021/12/26 00:27:44;;;;;;;19.80;14.80;;;6.10;99.90;;;;;;1877615;76;21542;-77
2021/12/26 00:30:35;;;;;;;23.60;14.87;;;6.10;99.90;;;;;;1881222;76;21633;-76
2021/12/26 00:33:27;;;;;;;19.48;14.70;;;6.10;99.90;;;;;;1861667;76;21153;-77
2021/12/26 00:36:18;;;;;;;19.57;14.95;;;6.10;99.90;;;;;;1880035;76;21070;-77
2021/12/26 00:39:10;;;;;;;17.92;12.75;;;6.10;99.90;;;;;;1879930;76;21058;-77
2021/12/26 00:42:03;;;;;;;13.40;10.20;;;6.10;99.90;;;;;;1879701;76;21045;-78
2021/12/26 00:44:54;;;;;;;13.22;9.78;;;6.20;99.90;;;;;;1879661;76;21604;-78
2021/12/26 00:47:45;;;;;;;15.20;11.53;;;6.30;99.90;;;;;;1856230;76;21212;-77
2021/12/26 00:50:39;;;;;;;17.17;12.75;;;6.30;99.90;;;;;;1880103;76;21053;-77
2021/12/26 00:53:30;;;;;;;18.37;13.58;;;6.30;99.90;;;;;;1880134;76;21115;-78
2021/12/26 00:56:21;;;;;;;18.20;13.13;;;6.20;99.90;;;;;;1897853;74;21111;-78
2021/12/26 00:59:12;;;;;;;16.87;13.18;;;6.20;99.90;;;;;;1915391;74;21123;-78
2021/12/26 01:02:05;;;;;;;16.97;13.20;;;6.20;99.90;;;;;;1893960;74;21206;-78
2021/12/26 01:04:56;;;;;;;17.42;13.28;;;6.10;99.90;;;;;;1915828;74;21479;-77
2021/12/26 01:07:56;;;;;;;17.27;12.30;;;6.20;99.90;;;;;;1893900;76;21113;-77
2021/12/26 01:10:48;;;;;;;14.98;11.38;;;6.10;99.90;;;;;;1893685;74;21072;-77
2021/12/26 01:13:43;;;;;;;13.08;10.28;;;6.10;99.90;;;;;;1903136;74;21086;-77
2021/12/26 01:16:50;;;;;;;13.70;9.38;;;6.20;99.90;;;;;;1875521;74;21074;-77
2021/12/26 01:19:46;;;;;;;12.80;9.18;;;6.20;99.90;;;;;;1915800;74;21510;-77
2021/12/26 01:22:37;;;;;;;15.43;9.83;;;6.20;99.90;;;;;;1914300;74;21143;-77
2021/12/26 01:25:30;;;;;;;11.65;9.80;;;6.30;99.90;;;;;;1909597;74;21185;-77
2021/12/26 01:28:28;;;;;;;14.98;11.35;;;6.30;99.90;;;;;;1894214;74;21102;-77
2021/12/26 01:31:20;;;;;;;13.98;10.80;;;6.30;99.90;;;;;;1893454;74;21123;-77
2021/12/26 01:34:13;;;;;;;14.05;11.28;;;6.30;99.90;;;;;;1894170;75;21136;-77
2021/12/26 01:37:08;;;;;;;15.45;11.83;;;6.30;99.90;;;;;;1839620;76;21059;-77
2021/12/26 01:40:06;;;;;;;13.93;11.43;;;6.30;99.90;;;;;;1884199;76;21101;-77
2021/12/26 01:43:11;;;;;;;15.50;11.97;;;6.20;99.90;;;;;;1848241;76;21126;-77
2021/12/26 01:46:07;;;;;;;16.12;12.98;;;6.20;99.90;;;;;;1877193;76;21230;-77
2021/12/26 01:49:06;;;;;;;14.18;11.33;;;6.10;99.90;;;;;;1922357;74;21086;-77
2021/12/26 01:51:58;;;;;;;;;;;6.10;99.90;;;;;;1861478;76;21053;-77
2021/12/26 01:55:00;;;;;;;15.65;11.25;;;6.10;99.90;;;;;;1872843;76;20163;-77
2021/12/26 01:57:43;;;;;;;13.95;10.60;;;6.10;99.90;;;;;;1912662;74;21393;-78
2021/12/26 02:00:36;;;;;;;12.23;10.00;;;6.10;99.90;;;;;;1925927;74;21152;-77
2021/12/26 02:03:28;;;;;;;13.90;10.45;;;6.20;99.90;;;;;;1922136;74;21098;-77
2021/12/26 02:06:22;;;;;;;13.22;10.20;;;6.20;99.90;;;;;;1857817;77;21061;-78
2021/12/26 02:09:14;;;;;;;11.83;9.83;;;6.20;99.90;;;;;;1914306;74;21171;-77
2021/12/26 02:12:28;;;;;;;11.12;9.03;;;6.20;99.90;;;;;;1830233;77;21106;-77
2021/12/26 02:15:25;;;;;;;10.72;8.40;;;6.30;99.90;;;;;;1902118;74;21063;-77
2021/12/26 02:18:27;;;;;;;9.93;8.05;;;6.30;99.90;;;;;;1900114;75;21125;-77
2021/12/26 02:21:43;;;;;;;;;;;6.40;99.90;;;;;;1925480;74;21187;-77
2021/12/26 02:24:27;;;;;;;10.98;7.87;;;6.40;99.90;;;;;;1921408;74;20148;-78
2021/12/26 02:27:34;;;;;;;12.68;9.45;;;6.40;99.90;;;;;;1841422;77;21113;-77
2021/12/26 02:30:33;;;;;;;12.15;9.18;;;6.30;99.90;;;;;;1933258;74;21102;-78
2021/12/26 02:33:30;;;;;;;12.60;9.65;;;6.30;99.90;;;;;;1825536;78;21137;-77
2021/12/26 02:36:24;;;;;;;12.82;9.95;;;6.40;99.90;;;;;;1807330;77;21067;-77
2021/12/26 02:39:20;;;;;;;12.65;9.68;;;6.30;99.90;;;;;;1854249;76;21220;-78
2021/12/26 02:42:19;;;;;;;12.65;10.68;;;6.40;99.90;;;;;;1838347;76;21203;-77
2021/12/26 02:45:15;;;;;;;14.28;11.75;;;6.40;99.90;;;;;;1840386;77;21116;-78
2021/12/26 02:48:11;;;;;;;13.80;10.78;;;6.40;99.90;;;;;;1855220;77;21125;-77
2021/12/26 02:51:04;;;;;;;13.20;10.25;;;6.30;99.90;;;;;;1852969;77;21062;-77
2021/12/26 02:54:24;;;;;;;13.80;10.43;;;6.30;99.90;;;;;;1898287;74;21056;-78
2021/12/26 02:57:20;;;;;;;10.75;9.25;;;6.30;99.90;;;;;;1915357;74;21161;-77
2021/12/26 03:00:48;;;;;;;12.45;10.93;;;6.30;99.90;;;;;;1896025;74;21522;-77
2021/12/26 03:03:42;;;;;;;15.40;11.38;;;6.30;99.90;;;;;;1904486;74;21047;-77
2021/12/26 03:06:44;;;;;;;15.03;11.60;;;6.20;99.90;;;;;;1925386;74;21127;-78
2021/12/26 03:09:44;;;;;;;15.03;12.55;;;6.20;99.90;;;;;;1913520;74;21157;-78
2021/12/26 03:12:33;;;;;;;14.93;11.48;;;6.20;99.90;;;;;;1908823;74;21529;-77
2021/12/26 03:15:30;;;;;;;15.78;11.83;;;6.20;99.90;;;;;;1905033;74;21075;-79
2021/12/26 03:18:27;;;;;;;16.05;12.20;;;6.10;99.90;;;;;;1904365;74;21127;-77
2021/12/26 03:21:22;;;;;;;16.93;12.03;;;6.00;99.90;;;;;;1900860;74;21178;-78
2021/12/26 03:24:18;;;;;;;16.25;12.15;;;6.00;99.90;;;;;;1914981;74;21168;-77
2021/12/26 03:27:14;;;;;;;15.70;11.88;;;6.00;99.90;;;;;;1910802;74;21050;-78
2021/12/26 03:30:15;;;;;;;14.58;11.12;;;5.90;99.90;;;;;;1907293;74;21139;-77
2021/12/26 03:33:11;;;;;;;16.32;11.93;;;5.90;99.90;;;;;;1888009;74;21215;-77
2021/12/26 03:36:04;;;;;;;14.38;11.08;;;5.90;99.90;;;;;;1904565;74;21573;-77
2021/12/26 03:39:00;;;;;;;12.82;10.53;;;5.80;99.90;;;;;;1905198;74;21185;-79
2021/12/26 03:41:57;;;;;;;14.07;10.85;;;5.80;99.90;;;;;;1911714;74;21047;-77
2021/12/26 03:44:52;;;;;;;11.83;8.93;;;5.90;99.90;;;;;;1906948;74;21094;-77
2021/12/26 03:47:48;;;;;;;11.00;9.70;;;5.90;99.90;;;;;;1917610;74;21054;-77
2021/12/26 03:50:41;;;;;;;12.47;9.78;;;6.00;99.90;;;;;;1881154;74;21187;-77
2021/12/26 03:53:35;;;;;;;13.35;8.95;;;6.00;99.90;;;;;;1904895;74;21130;-79
2021/12/26 03:56:31;;;;;;;13.50;9.25;;;6.00;99.90;;;;;;1877371;76;21113;-77
2021/12/26 03:59:28;;;;;;;11.15;8.95;;;6.00;99.90;;;;;;1906984;74;21113;-76
2021/12/26 04:02:24;;;;;;;12.35;9.38;;;6.00;99.90;;;;;;1916123;74;21127;-77
2021/12/26 04:05:16;;;;;;;11.95;9.53;;;6.10;99.90;;;;;;1919905;74;21094;-77
2021/12/26 04:08:10;;;;;;;10.82;9.28;;;6.10;99.90;;;;;;1905081;74;21108;-77
2021/12/26 04:11:04;;;;;;;12.58;9.33;;;6.10;99.90;;;;;;1910344;74;21051;-77
2021/12/26 04:13:57;;;;;;;12.63;10.30;;;6.10;99.90;;;;;;1905225;74;21039;-77
2021/12/26 04:16:55;;;;;;;12.82;9.65;;;6.10;99.90;;;;;;1904561;74;21222;-78
2021/12/26 04:19:49;;;;;;;14.00;10.23;;;6.10;99.90;;;;;;1904364;74;21066;-77
2021/12/26 04:22:45;;;;;;;11.63;9.95;;;6.10;99.90;;;;;;1910189;74;21079;-78
2021/12/26 04:25:41;;;;;;;13.50;10.85;;;6.10;99.90;;;;;;1910319;74;21099;-78
2021/12/26 04:28:36;;;;;;;14.95;11.03;;;6.00;99.90;;;;;;1909748;74;21135;-77
2021/12/26 04:31:29;;;;;;;11.88;10.13;;;6.00;99.90;;;;;;1919469;74;21150;-77
2021/12/26 04:34:23;;;;;;;14.58;11.53;;;5.90;99.90;;;;;;1897003;74;21058;-77
2021/12/26 04:37:18;;;;;;;12.68;10.50;;;5.90;99.90;;;;;;1905726;74;21062;-77
2021/12/26 04:40:18;;;;;;;12.95;9.80;;;5.90;99.90;;;;;;1909951;74;21050;-77
2021/12/26 04:43:14;;;;;;;14.00;11.28;;;5.90;99.90;;;;;;1926939;74;21070;-77
2021/12/26 04:46:13;;;;;;;14.43;11.15;;;5.80;99.90;;;;;;1904395;74;21100;-77
2021/12/26 04:49:12;;;;;;;12.03;9.78;;;5.80;99.90;;;;;;1900736;74;21160;-77
2021/12/26 04:52:09;;;;;;;13.72;10.30;;;5.90;99.90;;;;;;1904333;74;21058;-78
2021/12/26 04:55:07;;;;;;;14.18;10.50;;;5.90;99.90;;;;;;1885117;74;21203;-77
2021/12/26 04:58:01;;;;;;;14.38;10.88;;;6.00;99.90;;;;;;1880352;76;21070;-77
2021/12/26 05:00:55;;;;;;;14.68;10.75;;;6.00;99.90;;;;;;1899053;75;21106;-77
2021/12/26 05:03:52;;;;;;;12.75;10.35;;;6.00;99.90;;;;;;1883006;74;21055;-77
2021/12/26 05:06:47;;;;;;;15.78;11.03;;;5.90;99.90;;;;;;1924972;74;21466;-76
2021/12/26 05:09:41;;;;;;;13.70;10.80;;;5.90;99.90;;;;;;1913305;74;21152;-77
2021/12/26 05:12:36;;;;;;;15.23;10.93;;;5.90;99.90;;;;;;1908925;74;21169;-77
2021/12/26 05:15:33;;;;;;;15.55;11.63;;;5.80;99.90;;;;;;1893866;76;21071;-77
2021/12/26 05:18:25;;;;;;;13.95;11.03;;;5.80;99.90;;;;;;1915605;74;21056;-77
2021/12/26 05:21:18;;;;;;;11.65;10.15;;;5.80;99.90;;;;;;1895514;74;21132;-77
2021/12/26 05:24:11;;;;;;;14.28;10.85;;;5.80;99.90;;;;;;1907720;74;21109;-77
2021/12/26 05:27:10;;;;;;;14.38;10.88;;;5.80;99.90;;;;;;1908672;74;21059;-77
2021/12/26 05:30:02;;;;;;;14.38;10.18;;;5.80;99.90;;;;;;1926590;74;21329;-77
2021/12/26 05:32:58;;;;;;;12.50;10.38;;;5.80;99.90;;;;;;1897743;74;21169;-77
2021/12/26 05:35:50;;;;;;;11.07;9.50;;;5.80;99.90;;;;;;1915910;74;21106;-77
2021/12/26 05:38:44;;;;;;;12.33;9.63;;;5.70;99.90;;;;;;1911977;74;21047;-78
2021/12/26 05:41:36;;;;;;;12.75;10.13;;;5.70;99.90;;;;;;1907046;74;21084;-77
2021/12/26 05:44:34;;;;;;;12.23;9.78;;;5.70;99.90;;;;;;1904828;74;21120;-78
2021/12/26 05:47:28;;;;;;;13.95;10.28;;;5.80;99.90;;;;;;1915717;74;21173;-77
2021/12/26 05:50:25;;;;;;;12.85;9.68;;;5.80;99.90;;;;;;1916698;74;21086;-79
2021/12/26 05:53:19;;;;;;;11.85;9.48;;;5.80;99.90;;;;;;1908420;74;21132;-77
2021/12/26 05:56:15;;;;;;;10.35;9.00;;;5.80;99.90;;;;;;1907747;74;21058;-77
2021/12/26 05:59:11;;;;;;;11.95;9.35;;;5.80;99.90;;;;;;1905950;74;21130;-78
2021/12/26 06:02:06;;;;;;;9.50;8.38;;;5.80;99.90;;;;;;1904811;75;21103;-78
2021/12/26 06:05:00;;;;;;;12.10;8.83;;;5.80;99.90;;;;;;1883083;75;21099;-77
2021/12/26 06:07:58;;;;;;;11.60;9.28;;;5.80;99.90;;;;;;1886533;75;21166;-77
2021/12/26 06:10:53;;;;;;;9.75;8.28;;;5.90;99.90;;;;;;1898980;75;21075;-77
2021/12/26 06:13:47;;;;;;;12.58;8.33;;;5.90;99.90;;;;;;1889007;75;21117;-77
2021/12/26 06:16:42;;;;;;;10.38;8.35;;;5.90;99.90;;;;;;1889134;75;21163;-77
2021/12/26 06:19:40;;;;;;;9.47;8.10;;;5.90;99.90;;;;;;1882952;75;21076;-77
2021/12/26 06:22:53;;;;;;;10.40;8.23;;;6.00;99.90;;;;;;1904240;75;21141;-77
2021/12/26 06:26:04;;;;;;;10.13;7.92;;;6.00;99.90;;;;;;1894209;75;21056;-77
2021/12/26 06:29:02;;;;;;;9.30;7.10;;;6.00;99.90;;;;;;1902065;75;21050;-77
2021/12/26 06:32:14;;;;;;;8.83;7.12;;;6.00;99.90;;;;;;1872261;76;21180;-77
2021/12/26 06:35:28;;;;;;;8.15;6.40;;;6.00;99.90;;;;;;1901732;75;21196;-77
2021/12/26 06:38:40;;;;;;;8.95;6.40;;;6.10;99.90;;;;;;1889347;75;21068;-77
2021/12/26 06:41:48;;;;;;;8.13;6.30;;;6.10;99.90;;;;;;1889728;75;21117;-78
2021/12/26 06:44:51;;;;;;;8.15;6.20;;;6.20;99.90;;;;;;1904559;75;21499;-77
2021/12/26 06:47:50;;;;;;;7.95;6.70;;;6.30;99.90;;;;;;1894501;75;21052;-78
2021/12/26 06:50:46;;;;;;;7.90;6.30;;;6.30;99.90;;;;;;1894679;75;21135;-77
2021/12/26 06:53:39;;;;;;;8.80;6.25;;;6.30;99.90;;;;;;1894730;75;21138;-77
2021/12/26 06:56:35;;;;;;;8.05;6.67;;;6.30;99.90;;;;;;1905008;75;21059;-77
2021/12/26 06:59:31;;;;;;;8.88;7.08;;;6.30;99.90;;;;;;1897912;75;21041;-77
2021/12/26 07:02:27;;;;;;;8.38;6.37;;;6.30;99.90;;;;;;1884024;75;21057;-77
2021/12/26 07:05:23;;;;;;;8.43;6.55;;;6.20;99.90;;;;;;1890028;75;21137;-77
2021/12/26 07:08:18;;;;;;;8.35;6.72;;;6.20;99.90;;;;;;1882897;75;21751;-79
2021/12/26 07:11:16;;;;;;;;;;;6.30;99.90;;;;;;1900729;74;21112;-77
2021/12/26 07:14:07;;;;;;;7.97;6.30;;;6.20;99.90;;;;;;1898396;75;20147;-77
2021/12/26 07:17:00;;;;;;;9.90;7.62;;;6.20;99.90;;;;;;1898228;75;21059;-77
2021/12/26 07:19:53;;;;;;;9.15;6.87;;;6.20;99.90;;;;;;1904605;75;21057;-79
2021/12/26 07:22:57;;;;;;;8.78;7.37;;;6.20;99.90;;;;;;1819450;74;21111;-77
2021/12/26 07:25:50;;;;;;;8.93;7.03;;;6.10;99.90;;;;;;1872250;75;21193;-77
2021/12/26 07:28:42;;;;;;;9.33;7.35;;;6.10;99.90;;;;;;1862060;77;21149;-77
2021/12/26 07:31:39;;;;;;;10.18;7.85;;;6.00;99.90;;;;;;1883862;75;21217;-77
2021/12/26 07:34:30;;;;;;;9.73;7.40;;;6.00;99.90;;;;;;1882669;75;21874;-77
2021/12/26 07:37:22;;;;;;;9.78;8.43;;;6.00;99.90;;;;;;1883001;75;21609;-77
2021/12/26 07:40:14;;;;;;;10.60;8.80;;;6.00;99.90;;;;;;1887204;75;21202;-79
2021/12/26 07:43:06;;;;;;;10.72;8.78;;;6.00;99.90;;;;;;1884131;75;21117;-78
2021/12/26 07:46:17;;;;;;;11.50;8.53;;;6.00;99.90;;;;;;1895790;75;21054;-78
2021/12/26 07:49:11;;;;;;;10.08;8.95;;;6.00;99.90;;;;;;1909770;75;21103;-77
2021/12/26 07:52:26;;;;;;;11.15;8.60;;;5.90;99.90;;;;;;1906027;75;21118;-77
2021/12/26 07:55:31;;;;;;;12.15;9.28;;;5.90;99.90;;;;;;1906060;75;21120;-76
2021/12/26 07:58:40;;;;;;;11.05;8.65;;;5.90;99.90;;;;;;1905981;75;21355;-77
2021/12/26 08:01:50;;;;;;;12.47;8.90;;;6.00;99.90;;;;;;1886898;75;21090;-77
2021/12/26 08:04:53;;;;;;;11.57;8.38;;;5.90;99.90;;;;;;1824644;74;21646;-78
2021/12/26 08:07:47;;;;;;;12.03;9.70;;;6.00;99.90;;;;;;1917014;75;21074;-77
2021/12/26 08:10:40;;;;;;;10.58;8.30;;;6.00;99.90;;;;;;1883853;75;21060;-77
2021/12/26 08:13:31;;;;;;;12.10;9.80;;;6.00;99.90;;;;;;1882853;75;21217;-77
2021/12/26 08:16:22;;;;;;;10.40;8.93;;;5.90;99.90;;;;;;1882745;75;21136;-77
2021/12/26 08:19:14;;;;;;;10.48;8.15;;;5.90;99.90;;;;;;1886437;75;21100;-77
2021/12/26 08:22:06;;;;;;;9.90;8.35;;;6.00;99.90;;;;;;1872228;75;21093;-77
2021/12/26 08:24:57;;;;;;;11.65;8.95;;;6.00;99.90;;;;;;1891510;75;21095;-78
2021/12/26 08:27:48;;;;;;;10.48;8.38;;;6.00;99.90;;;;;;1894734;75;21224;-78
2021/12/26 08:30:41;;;;;;;9.78;8.45;;;6.10;99.90;;;;;;1897817;75;21080;-77
2021/12/26 08:33:32;;;;;;;11.88;8.85;;;6.10;99.90;;;;;;1898218;75;21174;-78
2021/12/26 08:36:25;;;;;;;10.60;9.00;;;6.20;99.90;;;;;;1894451;75;21104;-79
2021/12/26 08:39:17;;;;;;;10.70;8.80;;;6.20;99.90;;;;;;1894312;75;21165;-77
2021/12/26 08:42:12;;;;;;;11.03;8.60;;;6.30;99.90;;;;;;1895914;75;21083;-77
2021/12/26 08:45:04;;;;;;;10.35;7.95;;;6.40;99.90;;;;;;1900032;75;21101;-78
2021/12/26 08:47:57;;;;;;;9.80;8.33;;;6.50;99.90;;;;;;1894916;75;21118;-77
2021/12/26 08:50:54;;;;;;;10.18;8.23;;;6.50;99.90;;;;;;1894499;75;21158;-78
2021/12/26 08:53:42;;;;;;;10.35;8.70;;;6.60;99.90;;;;;;1882512;75;21184;-78
2021/12/26 08:56:34;;;;;;;11.88;8.25;;;6.70;99.90;;;;;;1886815;75;21088;-77
2021/12/26 08:59:30;;;;;;;10.68;8.83;;;6.70;99.90;;;;;;1884476;75;21051;-77
2021/12/26 09:02:19;;;;;;;11.43;9.20;;;6.70;99.90;;;;;;1901383;74;21116;-77
2021/12/26 09:05:12;;;;;;;11.10;8.48;;;6.70;99.90;;;;;;1835737;77;21080;-77
2021/12/26 09:08:10;;;;;;;10.45;8.45;;;6.80;99.90;;;;;;1912793;74;21113;-79
2021/12/26 09:11:00;;;;;;;9.60;8.18;;;6.80;99.90;;;;;;1840211;77;21564;-77
2021/12/26 09:13:53;;;;;;;10.13;8.33;;;6.80;99.90;;;;;;1910998;74;21109;-78
2021/12/26 09:16:46;;;;;;;10.05;8.40;;;6.80;99.90;;;;;;1932895;74;21038;-78
2021/12/26 09:19:37;;;;;;;10.43;8.25;;;6.90;99.90;;;;;;1910705;74;21132;-78
2021/12/26 09:22:29;;;;;;;11.93;8.88;;;6.90;99.90;;;;;;1840113;77;21157;-77
2021/12/26 09:25:20;;;;;;;9.83;8.08;;;6.90;99.90;;;;;;1911723;74;21158;-78
2021/12/26 09:28:12;;;;;;;9.53;8.18;;;7.00;99.90;;;;;;1904315;74;21055;-77
2021/12/26 09:31:05;;;;;;;9.63;7.95;;;7.10;99.90;;;;;;1922254;74;21146;-78
2021/12/26 09:33:57;;;;;;;9.43;7.55;;;7.20;99.90;;;;;;1825290;78;21125;-79
2021/12/26 09:36:51;;;;;;;8.23;7.33;;;7.30;99.90;;;;;;1900121;75;21160;-78
2021/12/26 09:39:43;;;;;;;10.38;7.87;;;7.50;99.90;;;;;;1922241;74;21185;-77
2021/12/26 09:42:37;;;;;;;8.73;7.65;;;7.60;99.90;;;;;;1926931;74;21125;-78
2021/12/26 09:45:28;;;;;;;8.98;7.30;;;7.70;99.90;;;;;;1835037;77;21216;-77
2021/12/26 09:48:21;;;;;;;9.90;8.30;;;7.80;99.90;;;;;;1917109;74;21117;-78
2021/12/26 09:51:13;;;;;;;10.90;7.95;;;7.90;99.90;;;;;;1912136;74;21102;-78
2021/12/26 09:54:07;;;;;;;10.10;7.97;;;7.90;99.90;;;;;;1910993;74;21181;-77
2021/12/26 09:56:58;;;;;;;9.75;7.55;;;7.90;99.90;;;;;;1910321;74;21202;-77
2021/12/26 09:59:52;;;;;;;9.20;7.95;;;8.00;99.90;;;;;;1913121;74;21052;-79
2021/12/26 10:02:44;;;;;;;10.05;8.58;;;8.10;99.90;;;;;;1910998;74;21071;-78
2021/12/26 10:05:55;;;;;;;13.55;7.95;;;8.20;99.90;;;;;;1894462;75;21526;-77
2021/12/26 10:08:59;;;;;;;10.00;8.20;;;8.30;99.90;;;;;;1882385;75;21559;-77
2021/12/26 10:11:54;;;;;;;10.43;7.33;;;8.40;99.90;;;;;;1887905;75;21125;-79
2021/12/26 10:14:49;;;;;;;10.40;8.10;;;8.40;99.90;;;;;;1895528;75;21099;-78
2021/12/26 10:17:42;;;;;;;8.73;7.70;;;8.50;99.90;;;;;;1897459;75;21188;-77
2021/12/26 10:20:37;;;;;;;10.20;7.83;;;8.50;99.90;;;;;;1899001;75;21197;-76
2021/12/26 10:23:31;;;;;;;10.78;7.80;;;8.60;99.90;;;;;;1894675;75;21506;-76
2021/12/26 10:26:24;;;;;;;9.23;7.70;;;8.70;99.90;;;;;;1893627;75;21120;-78
2021/12/26 10:29:25;;;;;;;9.13;7.55;;;8.70;99.90;;;;;;1893393;75;21103;-76
2021/12/26 10:32:19;;;;;;;10.23;7.47;;;8.80;99.90;;;;;;1891365;75;21051;-76
2021/12/26 10:35:14;;;;;;;11.60;8.73;;;8.90;99.90;;;;;;1886482;75;21197;-76
2021/12/26 10:38:17;;;;;;;11.20;7.97;;;8.90;99.90;;;;;;1895713;75;21151;-76
2021/12/26 10:41:23;;;;;;;11.55;9.13;;;8.90;99.90;;;;;;1908684;75;21205;-75
2021/12/26 10:44:28;;;;;;;10.63;8.98;;;8.90;99.90;;;;;;1906349;75;21071;-76
2021/12/26 10:47:22;;;;;;;10.90;8.28;;;9.00;99.90;;;;;;1906285;75;21127;-76
2021/12/26 10:50:16;;;;;;;9.00;7.33;;;9.00;99.90;;;;;;1905172;75;21111;-76
2021/12/26 10:53:14;;;;;;;8.08;6.83;;;9.00;99.90;;;;;;1888286;75;21100;-77
2021/12/26 10:56:20;;;;;;;10.72;7.72;;;9.00;99.90;;;;;;1896245;75;21185;-76
2021/12/26 10:59:20;;;;;;;8.53;6.72;;;9.00;99.90;;;;;;1882636;75;21161;-76
2021/12/26 11:02:14;;;;;;;7.42;6.28;;;9.10;99.90;;;;;;1882863;75;21140;-75
2021/12/26 11:05:10;;;;;;;8.15;6.10;;;9.20;99.90;;;;;;1898271;74;21140;-76
2021/12/26 11:08:04;;;;;;;7.28;6.00;;;9.20;99.90;;;;;;1893423;76;21585;-75
2021/12/26 11:10:57;;;;;;;7.83;6.37;;;9.30;99.90;;;;;;1909173;74;21179;-75
2021/12/26 11:13:50;;;;;;;6.33;5.72;;;9.40;99.90;;;;;;1904607;74;21165;-75
2021/12/26 11:16:43;;;;;;;7.20;5.65;;;9.40;99.90;;;;;;1920384;74;21082;-77
2021/12/26 11:19:48;;;;;;;7.83;5.10;;;9.40;99.90;;;;;;1915155;74;21110;-76
2021/12/26 11:22:41;;;;;;;8.08;5.70;;;9.40;99.90;;;;;;1893507;75;21153;-76
2021/12/26 11:25:32;;;;;;;6.47;5.12;;;9.40;99.90;;;;;;1893586;76;21094;-76
2021/12/26 11:28:28;;;;;;;6.83;4.75;;;9.50;99.90;;;;;;1915376;74;21332;-75
2021/12/26 11:31:24;;;;;;;7.92;4.75;;;9.60;99.90;;;;;;1915433;74;21126;-76
2021/12/26 11:34:16;;;;;;;5.22;4.40;;;9.70;99.90;;;;;;1895327;74;21162;-76
2021/12/26 11:37:09;;;;;;;6.15;4.50;;;9.70;99.90;;;;;;1907686;74;21072;-76
2021/12/26 11:40:20;;;;;;;6.83;4.83;;;9.90;99.90;;;;;;1893852;76;21117;-76
2021/12/26 11:46:31;;;;;;;5.42;4.37;;;9.90;99.90;;;;;;1955091;72;22183;-76
2021/12/26 11:50:07;;;;;;;5.37;3.75;;;9.90;99.90;;;;;;1897013;75;21117;-76
2021/12/26 11:53:21;;;;;;;6.22;4.40;;;9.90;99.90;;;;;;1898911;75;21067;-76
2021/12/26 11:56:28;;;;;;;5.55;4.00;;;9.90;99.90;;;;;;1900170;75;21106;-77
2021/12/26 11:59:53;;;;;;;4.95;3.67;;;10.00;99.90;;;;;;1900115;75;21183;-77
2021/12/26 12:02:48;;;;;;;7.90;4.97;;;10.00;99.90;;;;;;1898692;75;21581;-77
2021/12/26 12:05:42;;;;;;;6.33;5.05;;;10.00;99.90;;;;;;1886191;75;21570;-77
2021/12/26 12:08:35;;;;;;;6.53;5.40;;;10.10;99.90;;;;;;1888977;75;21129;-76
2021/12/26 12:11:26;;;;;;;7.33;5.72;;;10.20;99.90;;;;;;1896357;75;21160;-76
2021/12/26 12:14:26;;;;;;;7.03;5.80;;;10.30;99.90;;;;;;1900284;75;21103;-76
2021/12/26 12:17:20;;;;;;;7.20;5.78;;;10.40;99.90;;;;;;1905345;75;21156;-76
2021/12/26 12:20:20;;;;;;;7.17;5.58;;;10.50;99.90;;;;;;1892169;75;21079;-75
2021/12/26 12:23:19;;;;;;;7.67;6.60;;;10.60;99.90;;;;;;1895505;75;21124;-75
2021/12/26 12:26:11;;;;;;;7.87;6.05;;;10.70;99.90;;;;;;1894544;75;21167;-75
2021/12/26 12:29:03;;;;;;;8.25;6.20;;;10.80;99.90;;;;;;1901528;75;21113;-75
2021/12/26 12:32:16;;;;;;;8.05;6.05;;;10.70;99.90;;;;;;1884702;76;21128;-75
2021/12/26 12:35:16;;;;;;;7.55;6.25;;;10.80;99.90;;;;;;1898609;75;21130;-76
2021/12/26 12:55:02;;;;;;;9.08;6.60;;;10.40;99.90;;;;;;1994768;71;22158;-75
2021/12/26 12:57:56;;;;;;;7.47;6.30;;;10.40;99.90;;;;;;1934190;73;21087;-77
2021/12/26 13:00:49;;;;;;;8.58;6.35;;;10.30;99.90;;;;;;2020039;70;21576;-76
2021/12/26 13:03:41;;;;;;;7.08;5.78;;;10.30;99.90;;;;;;2018746;70;21158;-77
2021/12/26 13:06:56;;;;;;;9.13;6.30;;;10.40;99.90;;;;;;2000570;70;21058;-77
2021/12/26 13:09:56;;;;;;;7.28;5.60;;;10.40;99.90;;;;;;2007700;70;21120;-76
2021/12/26 13:12:47;;;;;;;8.20;6.05;;;10.40;99.90;;;;;;2031817;70;21087;-76
2021/12/26 13:15:56;;;;;;;7.87;5.30;;;10.40;99.90;;;;;;2011572;70;21033;-76
2021/12/26 13:18:47;;;;;;;6.22;5.30;;;10.40;99.90;;;;;;2010253;70;21018;-77
2021/12/26 13:21:39;;;;;;;7.17;5.03;;;10.20;99.90;;;;;;2007795;70;21092;-76
2021/12/26 13:24:36;;;;;;;7.30;5.35;;;10.20;99.90;;;;;;2007425;70;21105;-77
2021/12/26 13:27:28;;;;;;;6.60;5.45;;;10.20;99.90;;;;;;2031812;70;21103;-76
2021/12/26 13:30:20;;;;;;;8.05;5.70;;;10.20;99.90;;;;;;2015014;70;21030;-76
2021/12/26 13:33:17;;;;;;;6.17;5.30;;;10.20;99.90;;;;;;2007351;70;21030;-76
2021/12/26 13:36:13;;;;;;;8.20;5.08;;;10.20;99.90;;;;;;2025568;70;21082;-76
2021/12/26 13:39:05;;;;;;;6.08;4.92;;;10.20;99.90;;;;;;1996798;70;21118;-76
2021/12/26 13:41:56;;;;;;;7.17;5.40;;;10.20;99.90;;;;;;2032227;70;21775;-77
2021/12/26 13:45:08;;;;;;;7.87;6.22;;;10.30;99.90;;;;;;2012936;70;21025;-77
2021/12/26 13:48:29;;;;;;;7.05;5.87;;;10.30;99.90;;;;;;2013834;70;21065;-76
2021/12/26 13:51:25;;;;;;;7.40;5.85;;;10.30;99.90;;;;;;2011096;70;21029;-76
2021/12/26 13:54:26;;;;;;;6.67;5.22;;;10.30;99.90;;;;;;2007594;70;21069;-76
2021/12/26 13:57:22;;;;;;;5.60;4.62;;;10.20;99.90;;;;;;2007198;70;21053;-76
2021/12/26 14:00:16;;;;;;;5.45;4.95;;;10.20;99.90;;;;;;2007382;70;21099;-76
2021/12/26 14:03:10;;;;;;;6.30;5.03;;;10.20;99.90;;;;;;2009721;70;21517;-77
2021/12/26 14:06:01;;;;;;;6.53;5.42;;;10.20;99.90;;;;;;1994815;72;21091;-77
2021/12/26 14:08:57;;;;;;;6.72;5.72;;;10.30;99.90;;;;;;2019253;70;21025;-75
2021/12/26 14:11:48;;;;;;;8.05;6.10;;;10.30;99.90;;;;;;1994708;71;21038;-78
2021/12/26 14:14:41;;;;;;;7.35;5.87;;;10.30;99.90;;;;;;1994823;72;21088;-76
2021/12/26 14:17:33;;;;;;;8.15;6.33;;;10.40;99.90;;;;;;1994854;70;21033;-76
2021/12/26 14:20:26;;;;;;;5.72;4.70;;;10.40;99.90;;;;;;2008141;70;21138;-77
2021/12/26 14:23:20;;;;;;;7.65;4.87;;;10.40;99.90;;;;;;2006644;70;21094;-77
2021/12/26 14:26:15;;;;;;;6.72;5.03;;;10.40;99.90;;;;;;2007086;70;21083;-76
2021/12/26 14:29:09;;;;;;;8.30;5.30;;;10.50;99.90;;;;;;2008856;70;21072;-76
2021/12/26 14:32:01;;;;;;;8.98;5.70;;;10.60;99.90;;;;;;1994739;72;21163;-76
2021/12/26 14:34:52;;;;;;;6.10;5.22;;;10.60;99.90;;;;;;2019132;70;21146;-76
2021/12/26 14:37:45;;;;;;;6.28;5.28;;;10.60;99.90;;;;;;2019122;70;21080;-76
2021/12/26 14:40:37;;;;;;;7.22;5.42;;;10.60;99.90;;;;;;1995017;70;21189;-76
2021/12/26 14:43:30;;;;;;;7.47;5.70;;;10.60;99.90;;;;;;2012271;70;21103;-76
2021/12/26 14:46:24;;;;;;;6.80;5.08;;;10.60;99.90;;;;;;1994659;72;21038;-76
2021/12/26 14:49:18;;;;;;;5.80;4.65;;;10.60;99.90;;;;;;2019031;70;21151;-74
2021/12/26 14:52:11;;;;;;;6.30;4.65;;;10.60;99.90;;;;;;1994539;70;21025;-76
2021/12/26 14:55:03;;;;;;;5.95;4.67;;;10.50;99.90;;;;;;1994726;72;21058;-76
2021/12/26 14:57:55;;;;;;;8.18;5.15;;;10.60;99.90;;;;;;1994821;72;21026;-76
2021/12/26 15:00:48;;;;;;;6.35;4.60;;;10.60;99.90;;;;;;2018933;70;21554;-76
2021/12/26 15:03:39;;;;;;;5.20;4.08;;;10.60;99.90;;;;;;2000621;70;21134;-77
2021/12/26 15:06:31;;;;;;;6.75;4.65;;;10.50;99.90;;;;;;2006752;70;21137;-76
2021/12/26 15:09:36;;;;;;;5.62;4.58;;;10.50;99.90;;;;;;2012282;70;21065;-75
2021/12/26 15:12:34;;;;;;;6.00;4.75;;;10.50;99.90;;;;;;1994382;72;21061;-76
2021/12/26 15:15:28;;;;;;;7.40;4.95;;;10.60;99.90;;;;;;1994672;72;21158;-76
2021/12/26 15:18:22;;;;;;;6.22;5.40;;;10.50;99.90;;;;;;2018544;70;21135;-77
2021/12/26 15:21:14;;;;;;;6.12;5.53;;;10.50;99.90;;;;;;1996513;70;21533;-76
2021/12/26 15:24:10;;;;;;;7.78;6.35;;;10.50;99.90;;;;;;2010429;70;21135;-76
2021/12/26 15:27:04;;;;;;;7.22;6.03;;;10.50;99.90;;;;;;2010937;70;21026;-78
2021/12/26 15:29:57;;;;;;;6.92;5.58;;;10.40;99.90;;;;;;2006383;70;21456;-76
2021/12/26 15:32:50;;;;;;;6.85;5.35;;;10.40;99.90;;;;;;2001217;70;21112;-76
2021/12/26 15:35:44;;;;;;;6.78;5.50;;;10.30;99.90;;;;;;2019109;70;21074;-76
2021/12/26 15:38:35;;;;;;;6.20;5.37;;;10.30;99.90;;;;;;2012877;70;21131;-76